sensor_id;sensor_type;location;lat;lon;timestamp;temperature;humidity
3402;DHT22;1714;49.756;8.610;2023-07-16T00:00:55;21.10;14.10
3402;DHT22;1714;49.756;8.610;2023-07-16T00:11:30;21.00;12.00
3402;DHT22;1714;49.756;8.610;2023-07-16T00:22:05;21.00;11.50
3402;DHT22;1714;49.756;8.610;2023-07-16T00:32:40;20.70;10.70
3402;DHT22;1714;49.756;8.610;2023-07-16T00:43:14;20.60;13.20
3402;DHT22;1714;49.756;8.610;2023-07-16T00:53:49;20.50;11.70
3402;DHT22;1714;49.756;8.610;2023-07-16T01:04:25;20.40;2.50
3402;DHT22;1714;49.756;8.610;2023-07-16T01:15:00;20.00;1.00
3402;DHT22;1714;49.756;8.610;2023-07-16T01:26:08;19.90;1.00
3402;DHT22;1714;49.756;8.610;2023-07-16T01:36:48;19.90;1.00
3402;DHT22;1714;49.756;8.610;2023-07-16T01:58:36;19.70;1.80
3402;DHT22;1714;49.756;8.610;2023-07-16T02:09:11;19.70;1.00
3402;DHT22;1714;49.756;8.610;2023-07-16T02:19:46;19.50;1.00
3402;DHT22;1714;49.756;8.610;2023-07-16T02:30:21;19.50;1.00
3402;DHT22;1714;49.756;8.610;2023-07-16T02:40:55;19.60;1.00
3402;DHT22;1714;49.756;8.610;2023-07-16T02:51:31;19.50;1.00
3402;DHT22;1714;49.756;8.610;2023-07-16T03:02:07;19.10;1.00
3402;DHT22;1714;49.756;8.610;2023-07-16T03:12:41;19.10;1.00
3402;DHT22;1714;49.756;8.610;2023-07-16T03:23:16;19.00;1.00
3402;DHT22;1714;49.756;8.610;2023-07-16T03:33:51;18.90;1.00
3402;DHT22;1714;49.756;8.610;2023-07-16T03:44:27;18.60;1.00
3402;DHT22;1714;49.756;8.610;2023-07-16T03:55:02;18.90;1.00
3402;DHT22;1714;49.756;8.610;2023-07-16T04:05:37;18.50;1.00
3402;DHT22;1714;49.756;8.610;2023-07-16T04:16:13;18.60;1.00
3402;DHT22;1714;49.756;8.610;2023-07-16T04:26:48;18.60;1.00
3402;DHT22;1714;49.756;8.610;2023-07-16T04:37:23;18.70;1.00
3402;DHT22;1714;49.756;8.610;2023-07-16T04:47:58;18.70;1.00
3402;DHT22;1714;49.756;8.610;2023-07-16T04:58:34;18.50;1.00
3402;DHT22;1714;49.756;8.610;2023-07-16T05:09:08;18.60;1.00
3402;DHT22;1714;49.756;8.610;2023-07-16T05:19:43;18.50;1.00
3402;DHT22;1714;49.756;8.610;2023-07-16T05:30:19;18.40;1.00
3402;DHT22;1714;49.756;8.610;2023-07-16T05:41:00;18.50;1.00
3402;DHT22;1714;49.756;8.610;2023-07-16T05:51:36;18.70;1.00
3402;DHT22;1714;49.756;8.610;2023-07-16T06:02:11;18.80;1.00
3402;DHT22;1714;49.756;8.610;2023-07-16T06:12:46;19.00;1.00
3402;DHT22;1714;49.756;8.610;2023-07-16T06:23:21;19.10;1.00
3402;DHT22;1714;49.756;8.610;2023-07-16T06:33:56;19.00;1.00
3402;DHT22;1714;49.756;8.610;2023-07-16T06:44:31;19.10;1.00
3402;DHT22;1714;49.756;8.610;2023-07-16T06:55:06;19.20;1.00
3402;DHT22;1714;49.756;8.610;2023-07-16T07:05:42;19.40;1.00
3402;DHT22;1714;49.756;8.610;2023-07-16T07:16:16;19.60;1.00
3402;DHT22;1714;49.756;8.610;2023-07-16T07:26:52;20.00;1.00
3402;DHT22;1714;49.756;8.610;2023-07-16T07:37:27;20.10;1.00
3402;DHT22;1714;49.756;8.610;2023-07-16T07:48:02;21.10;1.00
3402;DHT22;1714;49.756;8.610;2023-07-16T07:58:37;20.70;1.00
3402;DHT22;1714;49.756;8.610;2023-07-16T08:09:12;21.40;1.00
3402;DHT22;1714;49.756;8.610;2023-07-16T08:19:47;21.80;1.00
3402;DHT22;1714;49.756;8.610;2023-07-16T08:30:22;21.40;1.00
3402;DHT22;1714;49.756;8.610;2023-07-16T08:40:57;22.30;1.00
3402;DHT22;1714;49.756;8.610;2023-07-16T08:51:32;23.40;1.00
3402;DHT22;1714;49.756;8.610;2023-07-16T09:02:09;23.00;1.00
3402;DHT22;1714;49.756;8.610;2023-07-16T09:12:45;23.40;1.00
3402;DHT22;1714;49.756;8.610;2023-07-16T09:23:19;24.20;1.00
3402;DHT22;1714;49.756;8.610;2023-07-16T09:33:57;24.50;1.00
3402;DHT22;1714;49.756;8.610;2023-07-16T09:44:33;25.40;1.00
3402;DHT22;1714;49.756;8.610;2023-07-16T09:55:09;26.00;1.00
3402;DHT22;1714;49.756;8.610;2023-07-16T10:05:44;25.60;1.00
3402;DHT22;1714;49.756;8.610;2023-07-16T10:16:20;24.90;1.00
3402;DHT22;1714;49.756;8.610;2023-07-16T10:27:02;25.50;1.00
3402;DHT22;1714;49.756;8.610;2023-07-16T10:37:39;25.90;1.00
3402;DHT22;1714;49.756;8.610;2023-07-16T10:48:14;25.90;1.00
3402;DHT22;1714;49.756;8.610;2023-07-16T10:58:50;26.60;1.00
3402;DHT22;1714;49.756;8.610;2023-07-16T11:09:25;27.20;1.00
3402;DHT22;1714;49.756;8.610;2023-07-16T11:20:00;26.90;1.00
3402;DHT22;1714;49.756;8.610;2023-07-16T11:30:37;26.20;1.00
3402;DHT22;1714;49.756;8.610;2023-07-16T11:41:12;26.50;1.00
3402;DHT22;1714;49.756;8.610;2023-07-16T11:51:47;27.00;1.00
3402;DHT22;1714;49.756;8.610;2023-07-16T12:02:28;27.60;1.00
3402;DHT22;1714;49.756;8.610;2023-07-16T12:13:04;28.00;1.00
3402;DHT22;1714;49.756;8.610;2023-07-16T12:23:39;27.70;1.00
3402;DHT22;1714;49.756;8.610;2023-07-16T12:34:13;27.90;1.00
3402;DHT22;1714;49.756;8.610;2023-07-16T12:44:48;28.40;1.00
3402;DHT22;1714;49.756;8.610;2023-07-16T12:55:25;26.90;1.00
3402;DHT22;1714;49.756;8.610;2023-07-16T13:06:00;27.10;1.00
3402;DHT22;1714;49.756;8.610;2023-07-16T13:16:35;26.60;1.00
3402;DHT22;1714;49.756;8.610;2023-07-16T13:27:19;27.20;1.00
3402;DHT22;1714;49.756;8.610;2023-07-16T13:37:53;28.80;1.00
3402;DHT22;1714;49.756;8.610;2023-07-16T13:48:29;28.70;1.00
3402;DHT22;1714;49.756;8.610;2023-07-16T13:59:17;29.20;1.00
3402;DHT22;1714;49.756;8.610;2023-07-16T14:09:52;29.30;1.00
3402;DHT22;1714;49.756;8.610;2023-07-16T14:20:27;28.60;1.00
3402;DHT22;1714;49.756;8.610;2023-07-16T14:31:02;28.60;1.00
3402;DHT22;1714;49.756;8.610;2023-07-16T14:41:37;28.80;1.00
3402;DHT22;1714;49.756;8.610;2023-07-16T14:52:12;28.90;1.00
3402;DHT22;1714;49.756;8.610;2023-07-16T15:02:47;29.00;1.00
3402;DHT22;1714;49.756;8.610;2023-07-16T15:13:22;29.30;1.00
3402;DHT22;1714;49.756;8.610;2023-07-16T15:23:59;28.10;1.00
3402;DHT22;1714;49.756;8.610;2023-07-16T15:34:34;27.90;1.00
3402;DHT22;1714;49.756;8.610;2023-07-16T15:45:11;28.50;1.00
3402;DHT22;1714;49.756;8.610;2023-07-16T15:55:51;28.50;1.00
3402;DHT22;1714;49.756;8.610;2023-07-16T16:06:26;28.70;1.00
3402;DHT22;1714;49.756;8.610;2023-07-16T16:17:01;28.30;1.00
3402;DHT22;1714;49.756;8.610;2023-07-16T16:27:43;28.50;1.00
3402;DHT22;1714;49.756;8.610;2023-07-16T16:38:19;27.90;1.00
3402;DHT22;1714;49.756;8.610;2023-07-16T16:48:53;28.20;1.00
3402;DHT22;1714;49.756;8.610;2023-07-16T16:59:29;27.80;1.00
3402;DHT22;1714;49.756;8.610;2023-07-16T17:10:08;27.20;1.00
3402;DHT22;1714;49.756;8.610;2023-07-16T17:20:43;26.80;1.00
3402;DHT22;1714;49.756;8.610;2023-07-16T17:31:18;26.30;1.00
3402;DHT22;1714;49.756;8.610;2023-07-16T17:41:53;25.80;1.00
3402;DHT22;1714;49.756;8.610;2023-07-16T17:52:28;25.40;1.00
3402;DHT22;1714;49.756;8.610;2023-07-16T18:03:03;25.30;1.00
3402;DHT22;1714;49.756;8.610;2023-07-16T18:13:39;25.20;1.00
3402;DHT22;1714;49.756;8.610;2023-07-16T18:24:14;25.00;1.00
3402;DHT22;1714;49.756;8.610;2023-07-16T18:34:48;24.90;1.00
3402;DHT22;1714;49.756;8.610;2023-07-16T18:45:27;24.40;1.00
3402;DHT22;1714;49.756;8.610;2023-07-16T18:56:02;24.40;1.00
3402;DHT22;1714;49.756;8.610;2023-07-16T19:06:50;24.20;1.00
3402;DHT22;1714;49.756;8.610;2023-07-16T19:17:31;24.00;1.00
3402;DHT22;1714;49.756;8.610;2023-07-16T19:28:08;23.50;1.00
3402;DHT22;1714;49.756;8.610;2023-07-16T19:38:51;23.20;1.00
3402;DHT22;1714;49.756;8.610;2023-07-16T19:49:31;22.90;1.00
3402;DHT22;1714;49.756;8.610;2023-07-16T20:00:08;22.60;1.00
3402;DHT22;1714;49.756;8.610;2023-07-16T20:10:50;22.20;1.00
3402;DHT22;1714;49.756;8.610;2023-07-16T20:21:30;21.80;1.00
3402;DHT22;1714;49.756;8.610;2023-07-16T20:32:09;21.50;1.00
3402;DHT22;1714;49.756;8.610;2023-07-16T20:42:51;21.30;1.00
3402;DHT22;1714;49.756;8.610;2023-07-16T20:53:33;20.90;1.00
3402;DHT22;1714;49.756;8.610;2023-07-16T21:04:12;20.70;1.00
3402;DHT22;1714;49.756;8.610;2023-07-16T21:14:57;20.60;1.00
3402;DHT22;1714;49.756;8.610;2023-07-16T21:25:35;20.30;1.00
3402;DHT22;1714;49.756;8.610;2023-07-16T21:36:11;20.20;1.00
3402;DHT22;1714;49.756;8.610;2023-07-16T21:46:48;20.00;1.00
3402;DHT22;1714;49.756;8.610;2023-07-16T21:57:23;19.90;1.00
3402;DHT22;1714;49.756;8.610;2023-07-16T22:07:58;19.70;1.00
3402;DHT22;1714;49.756;8.610;2023-07-16T22:18:33;19.40;1.00
3402;DHT22;1714;49.756;8.610;2023-07-16T22:29:09;19.20;1.00
3402;DHT22;1714;49.756;8.610;2023-07-16T22:39:44;19.20;1.00
3402;DHT22;1714;49.756;8.610;2023-07-16T22:50:19;19.00;1.00
3402;DHT22;1714;49.756;8.610;2023-07-16T23:00:54;19.00;1.00
3402;DHT22;1714;49.756;8.610;2023-07-16T23:11:29;18.70;1.00
3402;DHT22;1714;49.756;8.610;2023-07-16T23:22:04;18.80;1.00
3402;DHT22;1714;49.756;8.610;2023-07-16T23:32:40;18.70;1.00
3402;DHT22;1714;49.756;8.610;2023-07-16T23:43:15;18.70;1.00
3402;DHT22;1714;49.756;8.610;2023-07-16T23:53:50;18.70;1.00
